Aérodrome :
LOGIN :

S'inscrire | Disclaimer

   EN    FR    IT 

 










Légende :    VFR   VFR Marginal   IFR   IFR Intensif   IFR Très Intensif
Visi : 
Plafond : 
>= 8 km
>= 3000ft
5 à 8 km
1000 à 3000 ft
1500m à 5 km
500 à 1000 ft
800 à 1500m
200 à 500 ft
< 800m
< 200 ft
Symboles :   Orages  Brouillard  Fortes neiges  Fortes précipitations  Vent > 20 kt
SIGMETs :   Divers  Orages  Givrage  Turbulence  Onde Orograph.  Cendres Volcan.







- Altitude de l'aérodrome : 242 ft
- Code IATA : DUB


EIDW - Dublin

DERNIER METAR :
  • 211530Z 23013KT 9999 FEW008 SCT014 BKN017 14/12 Q0999 NOSIG

METARs EXPIRÉS :
  • 211500Z 23012KT 9999 FEW007 BKN012 14/12 Q0999 NOSIG
  • 211430Z 23014KT 9999 -DZ FEW007 BKN012 13/12 Q1000 NOSIG
  • 211400Z 22015KT 9999 FEW008 SCT014 BKN020 14/12 Q1000 NOSIG
  • 211330Z 22013KT 9000 -RADZ FEW008 SCT012 BKN015 14/12 Q1001 NOSIG
  • 211300Z 20012KT 170V230 9999 FEW012 SCT020 BKN080 14/12 Q1001 NOSIG

TAF TAF EIDW
Valide du 21 à 12h jusqu'au 22 à 12h UTC


211100Z 2112/2212 20012KT 9999 FEW015 BKN025
TEMPO 2112/2116 5000 -RADZ BKN009
BECMG 2115/2118 23014KT
TEMPO 2117/2123 25015G25KT
BECMG 2201/2203 21009KT
BECMG 2204/2206 13006KT -RA BKN010
TEMPO 2206/2209 3000 RADZ BKN005
BECMG 2209/2212 24012KT
Pas de NOTAMs connus pour ce terrain.



MET'MAP, la Météo Aéronautique d'un coup d'oeil ! - Copyright ORBIFLY Décembre 2007 - Disclaimer

ORBIFLY MET'MAP TEAM :

Programmation & Développement : Alexandra Zaïnal
Conception & Développement : Baudouin d'Aumeries
Co-Programmation & Développement : Marc-Olivier Méhu
Soutien technique & logistique : Manuel Goepfert

Contact : metmap@orbifly.com




SOURCES & CREDITS :

   NOAA